AirNav   TITAN Aviation Fuels
 
 1268 users online  

MY07 Nord Field Airport
Wolverton, Minnesota, USA

GOING TO WOLVERTON?


FAA INFORMATION EFFECTIVE 15 JULY 2021

Location

FAA Identifier: MY07
Lat/Long: 46-34-59.8590N 096-36-23.2670W
46-34.997650N 096-36.387783W
46.5832942,-96.6064631
(estimated)
Elevation: 948 ft. / 289 m (estimated)
Variation: 06E (1985)
From city: 5 miles NE of WOLVERTON, MN
Time zone: UTC -5 (UTC -6 during Standard Time)
Zip code: 56594

Airport Operations

Airport use: Private use. Permission required prior to landing
Activation date: 04/1980
Control tower: no
ARTCC: MINNEAPOLIS CENTER
FSS: PRINCETON FLIGHT SERVICE STATION
Attendance: UNATNDD
Segmented circle: no

Airport Communications

WX AWOS-3 at JKJ (16 nm N): 120.0 (218-287-5049)

Nearby radio navigation aids

VOR radial/distance  VOR name  Freq  Var
FARr126/14.3FARGO VOR/DME116.2009E
FFMr308/25.6FERGUS FALLS VOR/DME110.4005E
DTLr242/33.0DETROIT LAKES VOR/DME111.2002E

Airport Services

Runway Information

Runway N/S

Dimensions: 2600 x 100 ft. / 792 x 30 m
Surface: turf
RUNWAY N  RUNWAY S
Traffic pattern: leftleft
Obstructions: trees, 75 ft. from runwaytrees

Airport Ownership and Management from official FAA records

Ownership: Privately-owned
Owner: WALLACE NORD
1834 130TH ST
WOLVERTON, MN 56594
Phone 218-995-2710
Manager: WALLACE NORD
1834 130TH ST
WOLVERTON, MN 56594
Phone 218-995-2710

Additional Remarks

OWNER DESIRES CHARTING.
FOR CD CTC MINNEAPOLIS ARTCC AT 651-463-5588.

Instrument Procedures

There are no published instrument procedures at MY07.

Some nearby airports with instrument procedures:

KJKJ - Moorhead Municipal Airport (16 nm N)
K74 - Robert Odegaard Field Airport (17 nm W)
KBWP - Harry Stern Airport (20 nm S)
04Y - Hawley Municipal Airport (21 nm NE)
KFAR - Hector International Airport (22 nm NW)
 
Loc | Ops | Rwys | IFR | FBO | Links
Com | Nav | Svcs | Stats | Notes
Area around MY07 (Nord Field Airport)
 
Road maps at: MapQuest Bing Google
 
Aerial photo
No photo
 
Sectional chart

 
Airport distance calculator
Flying to Nord Field Airport? Find the distance to fly.

From to MY07

Sunrise and sunset
Times for 28-Jul-2021
 Local
(UTC-5)
 Zulu
(UTC)
Morning civil twilight05:2810:28
Sunrise06:0311:03
Sunset21:0202:02
Evening civil twilight21:3802:38

Current date and time
Zulu (UTC)  28-Jul-2021 22:32:15
Local (UTC-5)  28-Jul-2021 17:32:15
 
METAR
KJKJ 
15nm N 
282215Z AUTO 36008KT 10SM CLR 29/22 A2986 RMK AO2
KBWP 
20nm S 
282215Z AUTO 32012KT 10SM CLR 30/24 A2985 RMK AO2
KFAR 
23nm N 
282153Z 34014KT 10SM FEW019 OVC030 29/23 A2987 RMK AO2 PK WND 34027/2127 SLP108 T02890228
KFFM 
27nm SE 
282215Z AUTO 31014G18KT 10SM CLR 30/22 A2983 RMK AO2
TAF
KFAR 
23nm N 
282145Z 2822/2918 35015G23KT P6SM SCT019 BKN150 TEMPO 2822/2824 BKN019 FM290300 01010KT P6SM FEW250 FM291600 36010G18KT P6SM FEW250
NOTAMs
Click for the latest NOTAMs
NOTAMs are issued by the DoD/FAA and will open in a separate window not controlled by AirNav.

 

 
 

Would you like to see your business listed on this page?

 If your business provides an interesting product or service to pilots, flight crews, aircraft, or users of the Nord Field Airport, you should consider listing it here.  To start the listing process, click on the button below
 
Add a business
 

Other Pages about Nord Field Airport

Update a link
 
Copyright © AirNav, LLC. All rights reserved. Privacy Policy  Contact